sensor_id;sensor_type;location;lat;lon;timestamp;temperature;humidity
27540;DHT22;15906;52.046;4.724;2022-12-20T00:01:29;8.70;99.90
27540;DHT22;15906;52.046;4.724;2022-12-20T00:03:57;8.70;99.90
27540;DHT22;15906;52.046;4.724;2022-12-20T00:06:24;8.60;99.90
27540;DHT22;15906;52.046;4.724;2022-12-20T00:08:55;8.70;99.90
27540;DHT22;15906;52.046;4.724;2022-12-20T00:11:21;8.70;99.90
27540;DHT22;15906;52.046;4.724;2022-12-20T00:13:47;8.70;99.90
27540;DHT22;15906;52.046;4.724;2022-12-20T00:16:18;8.70;99.90
27540;DHT22;15906;52.046;4.724;2022-12-20T00:18:44;8.70;99.90
27540;DHT22;15906;52.046;4.724;2022-12-20T00:21:12;8.70;99.90
27540;DHT22;15906;52.046;4.724;2022-12-20T00:23:39;8.70;99.90
27540;DHT22;15906;52.046;4.724;2022-12-20T00:26:13;8.70;99.90
27540;DHT22;15906;52.046;4.724;2022-12-20T00:28:40;8.70;99.90
27540;DHT22;15906;52.046;4.724;2022-12-20T00:31:07;8.70;99.90
27540;DHT22;15906;52.046;4.724;2022-12-20T00:33:34;8.60;99.90
27540;DHT22;15906;52.046;4.724;2022-12-20T00:36:00;8.60;99.90
27540;DHT22;15906;52.046;4.724;2022-12-20T00:38:26;8.70;99.90
27540;DHT22;15906;52.046;4.724;2022-12-20T00:41:06;8.70;99.90
27540;DHT22;15906;52.046;4.724;2022-12-20T00:43:32;8.70;99.90
27540;DHT22;15906;52.046;4.724;2022-12-20T00:45:58;8.70;99.90
27540;DHT22;15906;52.046;4.724;2022-12-20T00:48:25;8.70;99.90
27540;DHT22;15906;52.046;4.724;2022-12-20T00:50:51;8.70;99.90
27540;DHT22;15906;52.046;4.724;2022-12-20T00:53:16;8.70;99.90
27540;DHT22;15906;52.046;4.724;2022-12-20T00:55:43;8.70;99.90
27540;DHT22;15906;52.046;4.724;2022-12-20T00:58:09;8.70;99.90
27540;DHT22;15906;52.046;4.724;2022-12-20T01:00:35;8.80;99.90
27540;DHT22;15906;52.046;4.724;2022-12-20T01:03:01;8.80;99.90
27540;DHT22;15906;52.046;4.724;2022-12-20T01:05:27;8.90;99.90
27540;DHT22;15906;52.046;4.724;2022-12-20T01:07:52;8.80;99.90
27540;DHT22;15906;52.046;4.724;2022-12-20T01:10:18;8.80;99.90
27540;DHT22;15906;52.046;4.724;2022-12-20T01:12:43;8.90;99.90
27540;DHT22;15906;52.046;4.724;2022-12-20T01:15:10;8.80;99.90
27540;DHT22;15906;52.046;4.724;2022-12-20T01:17:36;8.80;99.90
27540;DHT22;15906;52.046;4.724;2022-12-20T01:20:02;8.80;99.90
27540;DHT22;15906;52.046;4.724;2022-12-20T01:22:28;8.90;99.90
27540;DHT22;15906;52.046;4.724;2022-12-20T01:24:53;8.90;99.90
27540;DHT22;15906;52.046;4.724;2022-12-20T01:27:19;8.80;99.90
27540;DHT22;15906;52.046;4.724;2022-12-20T01:29:44;8.80;99.90
27540;DHT22;15906;52.046;4.724;2022-12-20T01:32:10;8.90;99.90
27540;DHT22;15906;52.046;4.724;2022-12-20T01:34:35;8.90;99.90
27540;DHT22;15906;52.046;4.724;2022-12-20T01:37:01;8.90;99.90
27540;DHT22;15906;52.046;4.724;2022-12-20T01:39:27;8.90;99.90
27540;DHT22;15906;52.046;4.724;2022-12-20T01:41:52;8.80;99.90
27540;DHT22;15906;52.046;4.724;2022-12-20T01:46:45;9.00;99.90
27540;DHT22;15906;52.046;4.724;2022-12-20T01:51:43;9.00;99.90
27540;DHT22;15906;52.046;4.724;2022-12-20T01:54:20;9.00;99.90
27540;DHT22;15906;52.046;4.724;2022-12-20T01:56:57;9.00;99.90
27540;DHT22;15906;52.046;4.724;2022-12-20T01:59:24;9.10;99.90
27540;DHT22;15906;52.046;4.724;2022-12-20T02:01:50;9.10;99.90
27540;DHT22;15906;52.046;4.724;2022-12-20T02:04:16;9.10;99.90
27540;DHT22;15906;52.046;4.724;2022-12-20T02:06:42;9.00;99.90
27540;DHT22;15906;52.046;4.724;2022-12-20T02:09:07;9.10;99.90
27540;DHT22;15906;52.046;4.724;2022-12-20T02:22:53;9.00;99.90
27540;DHT22;15906;52.046;4.724;2022-12-20T02:30:44;9.10;99.90
27540;DHT22;15906;52.046;4.724;2022-12-20T02:33:12;9.20;99.90
27540;DHT22;15906;52.046;4.724;2022-12-20T02:35:39;9.10;99.90
27540;DHT22;15906;52.046;4.724;2022-12-20T02:38:33;9.20;99.90
27540;DHT22;15906;52.046;4.724;2022-12-20T02:43:32;9.10;99.90
27540;DHT22;15906;52.046;4.724;2022-12-20T02:46:18;9.10;99.90
27540;DHT22;15906;52.046;4.724;2022-12-20T02:48:46;9.10;99.90
27540;DHT22;15906;52.046;4.724;2022-12-20T02:51:14;9.10;99.90
27540;DHT22;15906;52.046;4.724;2022-12-20T02:53:41;9.00;99.90
27540;DHT22;15906;52.046;4.724;2022-12-20T02:58:52;9.10;99.90
27540;DHT22;15906;52.046;4.724;2022-12-20T03:01:29;9.10;99.90
27540;DHT22;15906;52.046;4.724;2022-12-20T03:03:56;9.10;99.90
27540;DHT22;15906;52.046;4.724;2022-12-20T03:06:23;9.10;99.90
27540;DHT22;15906;52.046;4.724;2022-12-20T03:08:48;9.10;99.90
27540;DHT22;15906;52.046;4.724;2022-12-20T03:11:14;9.00;99.90
27540;DHT22;15906;52.046;4.724;2022-12-20T03:13:40;9.10;99.90
27540;DHT22;15906;52.046;4.724;2022-12-20T03:16:05;9.10;99.90
27540;DHT22;15906;52.046;4.724;2022-12-20T03:18:31;9.10;99.90
27540;DHT22;15906;52.046;4.724;2022-12-20T03:20:57;9.00;99.90
27540;DHT22;15906;52.046;4.724;2022-12-20T03:23:22;9.10;99.90
27540;DHT22;15906;52.046;4.724;2022-12-20T03:25:48;9.20;99.90
27540;DHT22;15906;52.046;4.724;2022-12-20T03:28:13;9.20;99.90
27540;DHT22;15906;52.046;4.724;2022-12-20T03:30:39;9.10;99.90
27540;DHT22;15906;52.046;4.724;2022-12-20T03:33:04;9.10;99.90
27540;DHT22;15906;52.046;4.724;2022-12-20T03:35:30;9.10;99.90
27540;DHT22;15906;52.046;4.724;2022-12-20T03:37:56;9.10;99.90
27540;DHT22;15906;52.046;4.724;2022-12-20T03:40:21;9.10;99.90
27540;DHT22;15906;52.046;4.724;2022-12-20T03:42:47;9.10;99.90
27540;DHT22;15906;52.046;4.724;2022-12-20T03:45:12;9.00;99.90
27540;DHT22;15906;52.046;4.724;2022-12-20T03:47:38;9.10;99.90
27540;DHT22;15906;52.046;4.724;2022-12-20T03:50:05;9.10;99.90
27540;DHT22;15906;52.046;4.724;2022-12-20T03:52:31;9.10;99.90
27540;DHT22;15906;52.046;4.724;2022-12-20T03:54:56;9.10;99.90
27540;DHT22;15906;52.046;4.724;2022-12-20T03:57:22;9.10;99.90
27540;DHT22;15906;52.046;4.724;2022-12-20T03:59:48;9.10;99.90
27540;DHT22;15906;52.046;4.724;2022-12-20T04:02:13;9.10;99.90
27540;DHT22;15906;52.046;4.724;2022-12-20T04:04:39;9.20;99.90
27540;DHT22;15906;52.046;4.724;2022-12-20T04:07:04;9.20;99.90
27540;DHT22;15906;52.046;4.724;2022-12-20T04:09:30;9.20;99.90
27540;DHT22;15906;52.046;4.724;2022-12-20T04:11:55;9.20;99.90
27540;DHT22;15906;52.046;4.724;2022-12-20T04:14:21;9.20;99.90
27540;DHT22;15906;52.046;4.724;2022-12-20T04:16:46;9.20;99.90
27540;DHT22;15906;52.046;4.724;2022-12-20T04:19:12;9.30;99.90
27540;DHT22;15906;52.046;4.724;2022-12-20T04:21:38;9.40;99.90
27540;DHT22;15906;52.046;4.724;2022-12-20T04:24:04;9.40;99.90
27540;DHT22;15906;52.046;4.724;2022-12-20T04:26:30;9.40;99.90
27540;DHT22;15906;52.046;4.724;2022-12-20T04:28:56;9.50;99.90
27540;DHT22;15906;52.046;4.724;2022-12-20T04:31:22;9.50;99.90
27540;DHT22;15906;52.046;4.724;2022-12-20T04:33:47;9.60;99.90
27540;DHT22;15906;52.046;4.724;2022-12-20T04:36:13;9.70;99.90
27540;DHT22;15906;52.046;4.724;2022-12-20T04:38:39;9.90;99.90
27540;DHT22;15906;52.046;4.724;2022-12-20T04:41:05;10.00;99.90
27540;DHT22;15906;52.046;4.724;2022-12-20T04:43:31;10.10;99.90
27540;DHT22;15906;52.046;4.724;2022-12-20T04:45:56;10.20;99.90
27540;DHT22;15906;52.046;4.724;2022-12-20T04:48:26;10.30;99.90
27540;DHT22;15906;52.046;4.724;2022-12-20T04:50:53;10.30;99.90
27540;DHT22;15906;52.046;4.724;2022-12-20T04:53:19;10.30;99.90
27540;DHT22;15906;52.046;4.724;2022-12-20T04:56:04;10.30;99.90
27540;DHT22;15906;52.046;4.724;2022-12-20T04:58:30;10.40;99.90
27540;DHT22;15906;52.046;4.724;2022-12-20T05:00:56;10.20;99.90
27540;DHT22;15906;52.046;4.724;2022-12-20T05:03:23;10.20;99.90
27540;DHT22;15906;52.046;4.724;2022-12-20T05:05:48;10.20;99.90
27540;DHT22;15906;52.046;4.724;2022-12-20T05:08:14;10.00;99.90
27540;DHT22;15906;52.046;4.724;2022-12-20T05:10:40;10.10;99.90
27540;DHT22;15906;52.046;4.724;2022-12-20T05:13:06;10.00;99.90
27540;DHT22;15906;52.046;4.724;2022-12-20T05:15:32;10.00;99.90
27540;DHT22;15906;52.046;4.724;2022-12-20T05:17:58;9.90;99.90
27540;DHT22;15906;52.046;4.724;2022-12-20T05:20:30;9.90;99.90
27540;DHT22;15906;52.046;4.724;2022-12-20T05:22:56;9.90;99.90
27540;DHT22;15906;52.046;4.724;2022-12-20T05:25:44;9.90;99.90
27540;DHT22;15906;52.046;4.724;2022-12-20T05:28:29;9.70;99.90
27540;DHT22;15906;52.046;4.724;2022-12-20T05:30:55;9.70;99.90
27540;DHT22;15906;52.046;4.724;2022-12-20T05:33:21;9.70;99.90
27540;DHT22;15906;52.046;4.724;2022-12-20T05:35:47;9.70;99.90
27540;DHT22;15906;52.046;4.724;2022-12-20T05:38:12;9.70;99.90
27540;DHT22;15906;52.046;4.724;2022-12-20T05:40:39;9.70;99.90
27540;DHT22;15906;52.046;4.724;2022-12-20T05:43:05;9.70;99.90
27540;DHT22;15906;52.046;4.724;2022-12-20T05:45:31;9.70;99.90
27540;DHT22;15906;52.046;4.724;2022-12-20T05:47:56;9.60;99.90
27540;DHT22;15906;52.046;4.724;2022-12-20T05:50:22;9.70;99.90
27540;DHT22;15906;52.046;4.724;2022-12-20T05:52:48;9.70;99.90
27540;DHT22;15906;52.046;4.724;2022-12-20T05:55:13;9.70;99.90
27540;DHT22;15906;52.046;4.724;2022-12-20T05:57:39;9.70;99.90
27540;DHT22;15906;52.046;4.724;2022-12-20T06:00:06;9.70;99.90
27540;DHT22;15906;52.046;4.724;2022-12-20T06:02:31;9.70;99.90
27540;DHT22;15906;52.046;4.724;2022-12-20T06:04:57;9.70;99.90
27540;DHT22;15906;52.046;4.724;2022-12-20T06:07:23;9.80;99.90
27540;DHT22;15906;52.046;4.724;2022-12-20T06:09:49;9.70;99.90
27540;DHT22;15906;52.046;4.724;2022-12-20T06:12:14;9.80;99.90
27540;DHT22;15906;52.046;4.724;2022-12-20T06:14:40;9.80;99.90
27540;DHT22;15906;52.046;4.724;2022-12-20T06:17:06;9.80;99.90
27540;DHT22;15906;52.046;4.724;2022-12-20T06:19:31;9.90;99.90
27540;DHT22;15906;52.046;4.724;2022-12-20T06:21:57;9.80;99.90
27540;DHT22;15906;52.046;4.724;2022-12-20T06:24:22;9.80;99.90
27540;DHT22;15906;52.046;4.724;2022-12-20T06:26:50;9.80;99.90
27540;DHT22;15906;52.046;4.724;2022-12-20T06:29:16;9.90;99.90
27540;DHT22;15906;52.046;4.724;2022-12-20T06:31:42;9.90;99.90
27540;DHT22;15906;52.046;4.724;2022-12-20T06:34:08;9.90;99.90
27540;DHT22;15906;52.046;4.724;2022-12-20T06:36:34;9.90;99.90
27540;DHT22;15906;52.046;4.724;2022-12-20T06:39:01;9.90;99.90
27540;DHT22;15906;52.046;4.724;2022-12-20T06:41:27;9.80;99.90
27540;DHT22;15906;52.046;4.724;2022-12-20T06:43:52;9.80;99.90
27540;DHT22;15906;52.046;4.724;2022-12-20T06:46:18;9.80;99.90
27540;DHT22;15906;52.046;4.724;2022-12-20T06:48:43;9.80;99.90
27540;DHT22;15906;52.046;4.724;2022-12-20T06:51:09;9.90;99.90
27540;DHT22;15906;52.046;4.724;2022-12-20T06:53:35;9.90;99.90
27540;DHT22;15906;52.046;4.724;2022-12-20T06:56:01;9.90;99.90
27540;DHT22;15906;52.046;4.724;2022-12-20T06:58:26;9.80;99.90
27540;DHT22;15906;52.046;4.724;2022-12-20T07:00:53;9.90;99.90
27540;DHT22;15906;52.046;4.724;2022-12-20T07:03:18;9.90;99.90
27540;DHT22;15906;52.046;4.724;2022-12-20T07:05:50;9.90;99.90
27540;DHT22;15906;52.046;4.724;2022-12-20T07:08:17;9.90;99.90
27540;DHT22;15906;52.046;4.724;2022-12-20T07:10:42;9.80;99.90
27540;DHT22;15906;52.046;4.724;2022-12-20T07:13:08;9.80;99.90
27540;DHT22;15906;52.046;4.724;2022-12-20T07:15:33;9.80;99.90
27540;DHT22;15906;52.046;4.724;2022-12-20T07:17:59;9.90;99.90
27540;DHT22;15906;52.046;4.724;2022-12-20T07:20:25;9.90;99.90
27540;DHT22;15906;52.046;4.724;2022-12-20T07:22:51;9.90;99.90
27540;DHT22;15906;52.046;4.724;2022-12-20T07:25:17;9.90;99.90
27540;DHT22;15906;52.046;4.724;2022-12-20T07:27:45;9.90;99.90
27540;DHT22;15906;52.046;4.724;2022-12-20T07:30:10;9.90;99.90
27540;DHT22;15906;52.046;4.724;2022-12-20T07:32:36;9.90;99.90
27540;DHT22;15906;52.046;4.724;2022-12-20T07:35:02;9.90;99.90
27540;DHT22;15906;52.046;4.724;2022-12-20T07:37:28;9.80;99.90
27540;DHT22;15906;52.046;4.724;2022-12-20T07:39:54;9.80;99.90
27540;DHT22;15906;52.046;4.724;2022-12-20T07:42:19;9.80;99.90
27540;DHT22;15906;52.046;4.724;2022-12-20T07:44:45;9.80;99.90
27540;DHT22;15906;52.046;4.724;2022-12-20T07:47:12;9.80;99.90
27540;DHT22;15906;52.046;4.724;2022-12-20T07:49:37;9.80;99.90
27540;DHT22;15906;52.046;4.724;2022-12-20T07:52:03;9.80;99.90
27540;DHT22;15906;52.046;4.724;2022-12-20T07:54:33;9.70;99.90
27540;DHT22;15906;52.046;4.724;2022-12-20T07:57:04;9.70;99.90
27540;DHT22;15906;52.046;4.724;2022-12-20T07:59:37;9.70;99.90
27540;DHT22;15906;52.046;4.724;2022-12-20T08:02:04;9.70;99.90
27540;DHT22;15906;52.046;4.724;2022-12-20T08:04:31;9.70;99.90
27540;DHT22;15906;52.046;4.724;2022-12-20T08:06:58;9.70;99.90
27540;DHT22;15906;52.046;4.724;2022-12-20T08:09:27;9.60;99.90
27540;DHT22;15906;52.046;4.724;2022-12-20T08:11:54;9.60;99.90
27540;DHT22;15906;52.046;4.724;2022-12-20T08:14:20;9.60;99.90
27540;DHT22;15906;52.046;4.724;2022-12-20T08:16:46;9.60;99.90
27540;DHT22;15906;52.046;4.724;2022-12-20T08:19:11;9.60;99.90
27540;DHT22;15906;52.046;4.724;2022-12-20T08:21:37;9.60;99.90
27540;DHT22;15906;52.046;4.724;2022-12-20T08:24:03;9.60;99.90
27540;DHT22;15906;52.046;4.724;2022-12-20T08:26:29;9.60;99.90
27540;DHT22;15906;52.046;4.724;2022-12-20T08:28:55;9.50;99.90
27540;DHT22;15906;52.046;4.724;2022-12-20T08:31:22;9.60;99.90
27540;DHT22;15906;52.046;4.724;2022-12-20T08:33:48;9.60;99.90
27540;DHT22;15906;52.046;4.724;2022-12-20T08:36:13;9.60;99.90
27540;DHT22;15906;52.046;4.724;2022-12-20T08:38:40;9.60;99.90
27540;DHT22;15906;52.046;4.724;2022-12-20T08:41:13;9.60;99.90
27540;DHT22;15906;52.046;4.724;2022-12-20T08:43:40;9.60;99.90
27540;DHT22;15906;52.046;4.724;2022-12-20T08:46:06;9.50;99.90
27540;DHT22;15906;52.046;4.724;2022-12-20T08:48:32;9.60;99.90
27540;DHT22;15906;52.046;4.724;2022-12-20T08:51:01;9.60;99.90
27540;DHT22;15906;52.046;4.724;2022-12-20T08:53:28;9.60;99.90
27540;DHT22;15906;52.046;4.724;2022-12-20T08:55:54;9.70;99.90
27540;DHT22;15906;52.046;4.724;2022-12-20T08:58:27;9.70;99.90
27540;DHT22;15906;52.046;4.724;2022-12-20T09:00:52;9.70;99.90
27540;DHT22;15906;52.046;4.724;2022-12-20T09:03:18;9.80;99.90
27540;DHT22;15906;52.046;4.724;2022-12-20T09:05:45;10.00;99.90
27540;DHT22;15906;52.046;4.724;2022-12-20T09:08:10;9.80;99.90
27540;DHT22;15906;52.046;4.724;2022-12-20T09:10:36;9.90;99.90
27540;DHT22;15906;52.046;4.724;2022-12-20T09:13:01;9.90;99.90
27540;DHT22;15906;52.046;4.724;2022-12-20T09:15:27;9.90;99.90
27540;DHT22;15906;52.046;4.724;2022-12-20T09:17:53;9.90;99.90
27540;DHT22;15906;52.046;4.724;2022-12-20T09:20:20;10.00;99.90
27540;DHT22;15906;52.046;4.724;2022-12-20T09:22:45;10.00;99.90
27540;DHT22;15906;52.046;4.724;2022-12-20T09:25:11;10.10;99.90
27540;DHT22;15906;52.046;4.724;2022-12-20T09:27:36;10.10;99.90
27540;DHT22;15906;52.046;4.724;2022-12-20T09:30:03;10.10;99.90
27540;DHT22;15906;52.046;4.724;2022-12-20T09:32:28;10.00;99.90
27540;DHT22;15906;52.046;4.724;2022-12-20T09:34:54;10.00;99.90
27540;DHT22;15906;52.046;4.724;2022-12-20T09:37:20;10.10;99.90
27540;DHT22;15906;52.046;4.724;2022-12-20T09:39:48;10.10;99.90
27540;DHT22;15906;52.046;4.724;2022-12-20T09:42:14;10.00;99.90
27540;DHT22;15906;52.046;4.724;2022-12-20T09:44:41;10.00;99.90
27540;DHT22;15906;52.046;4.724;2022-12-20T09:47:13;10.00;99.90
27540;DHT22;15906;52.046;4.724;2022-12-20T09:49:42;10.10;99.90
27540;DHT22;15906;52.046;4.724;2022-12-20T09:57:57;10.10;99.90
27540;DHT22;15906;52.046;4.724;2022-12-20T10:00:26;10.10;99.90
27540;DHT22;15906;52.046;4.724;2022-12-20T10:02:52;10.10;99.90
27540;DHT22;15906;52.046;4.724;2022-12-20T10:08:17;10.20;99.90
27540;DHT22;15906;52.046;4.724;2022-12-20T10:10:55;10.20;99.90
27540;DHT22;15906;52.046;4.724;2022-12-20T10:16:27;10.20;99.90
27540;DHT22;15906;52.046;4.724;2022-12-20T10:19:05;10.20;99.90
27540;DHT22;15906;52.046;4.724;2022-12-20T10:24:23;10.20;99.90
27540;DHT22;15906;52.046;4.724;2022-12-20T10:26:50;10.30;99.90
27540;DHT22;15906;52.046;4.724;2022-12-20T10:29:17;10.20;99.90
27540;DHT22;15906;52.046;4.724;2022-12-20T10:31:43;10.20;99.90
27540;DHT22;15906;52.046;4.724;2022-12-20T10:34:08;10.20;99.90
27540;DHT22;15906;52.046;4.724;2022-12-20T10:36:35;10.30;99.90
27540;DHT22;15906;52.046;4.724;2022-12-20T10:39:04;10.20;99.90
27540;DHT22;15906;52.046;4.724;2022-12-20T10:41:44;10.20;99.90
27540;DHT22;15906;52.046;4.724;2022-12-20T10:44:21;10.30;99.90
27540;DHT22;15906;52.046;4.724;2022-12-20T10:46:50;10.30;99.90
27540;DHT22;15906;52.046;4.724;2022-12-20T10:52:00;10.30;99.90
27540;DHT22;15906;52.046;4.724;2022-12-20T10:54:38;10.30;99.90
27540;DHT22;15906;52.046;4.724;2022-12-20T10:57:20;10.30;99.90
27540;DHT22;15906;52.046;4.724;2022-12-20T11:02:35;10.30;99.90
27540;DHT22;15906;52.046;4.724;2022-12-20T11:07:38;10.30;99.90
27540;DHT22;15906;52.046;4.724;2022-12-20T11:10:28;10.40;99.90
27540;DHT22;15906;52.046;4.724;2022-12-20T11:13:01;10.30;99.90
27540;DHT22;15906;52.046;4.724;2022-12-20T11:15:29;10.30;99.90
27540;DHT22;15906;52.046;4.724;2022-12-20T11:20:54;10.30;99.90
27540;DHT22;15906;52.046;4.724;2022-12-20T11:28:40;10.30;99.90
27540;DHT22;15906;52.046;4.724;2022-12-20T11:34:10;10.40;99.90
27540;DHT22;15906;52.046;4.724;2022-12-20T11:37:03;10.40;99.90
27540;DHT22;15906;52.046;4.724;2022-12-20T11:39:53;10.40;99.90
27540;DHT22;15906;52.046;4.724;2022-12-20T11:45:20;10.40;99.90
27540;DHT22;15906;52.046;4.724;2022-12-20T11:47:56;10.40;99.90
27540;DHT22;15906;52.046;4.724;2022-12-20T11:53:33;10.50;99.90
27540;DHT22;15906;52.046;4.724;2022-12-20T11:56:10;10.50;99.90
27540;DHT22;15906;52.046;4.724;2022-12-20T12:01:24;10.50;99.90
27540;DHT22;15906;52.046;4.724;2022-12-20T12:04:17;10.60;99.90
27540;DHT22;15906;52.046;4.724;2022-12-20T12:06:47;10.50;99.90
27540;DHT22;15906;52.046;4.724;2022-12-20T12:09:34;10.50;99.90
27540;DHT22;15906;52.046;4.724;2022-12-20T12:12:15;10.50;99.90
27540;DHT22;15906;52.046;4.724;2022-12-20T12:17:26;10.50;99.90
27540;DHT22;15906;52.046;4.724;2022-12-20T12:20:05;10.60;99.90
27540;DHT22;15906;52.046;4.724;2022-12-20T12:22:34;10.60;99.90
27540;DHT22;15906;52.046;4.724;2022-12-20T12:25:03;10.60;99.90
27540;DHT22;15906;52.046;4.724;2022-12-20T12:27:30;10.60;99.90
27540;DHT22;15906;52.046;4.724;2022-12-20T12:29:57;10.60;99.90
27540;DHT22;15906;52.046;4.724;2022-12-20T12:32:38;10.50;99.90
27540;DHT22;15906;52.046;4.724;2022-12-20T12:38:15;10.50;99.90
27540;DHT22;15906;52.046;4.724;2022-12-20T12:43:53;10.60;99.90
27540;DHT22;15906;52.046;4.724;2022-12-20T12:46:28;10.60;99.90
27540;DHT22;15906;52.046;4.724;2022-12-20T12:49:02;10.60;99.90
27540;DHT22;15906;52.046;4.724;2022-12-20T12:51:31;10.60;99.90
27540;DHT22;15906;52.046;4.724;2022-12-20T12:56:47;10.60;99.90
27540;DHT22;15906;52.046;4.724;2022-12-20T13:04:29;10.50;99.90
27540;DHT22;15906;52.046;4.724;2022-12-20T13:06:58;10.50;99.90
27540;DHT22;15906;52.046;4.724;2022-12-20T13:11:53;10.50;99.90
27540;DHT22;15906;52.046;4.724;2022-12-20T13:16:53;10.30;99.90
27540;DHT22;15906;52.046;4.724;2022-12-20T13:19:47;10.50;99.90
27540;DHT22;15906;52.046;4.724;2022-12-20T13:22:25;10.50;99.90
27540;DHT22;15906;52.046;4.724;2022-12-20T13:25:01;10.50;99.90
27540;DHT22;15906;52.046;4.724;2022-12-20T13:27:41;10.50;99.90
27540;DHT22;15906;52.046;4.724;2022-12-20T13:37:51;10.50;99.90
27540;DHT22;15906;52.046;4.724;2022-12-20T13:42:58;10.50;99.90
27540;DHT22;15906;52.046;4.724;2022-12-20T13:45:27;10.50;99.90
27540;DHT22;15906;52.046;4.724;2022-12-20T13:48:00;10.60;99.90
27540;DHT22;15906;52.046;4.724;2022-12-20T13:50:53;10.50;99.90
27540;DHT22;15906;52.046;4.724;2022-12-20T13:53:25;10.60;99.90
27540;DHT22;15906;52.046;4.724;2022-12-20T13:55:52;10.60;99.90
27540;DHT22;15906;52.046;4.724;2022-12-20T13:58:27;10.50;99.90
27540;DHT22;15906;52.046;4.724;2022-12-20T14:01:04;10.50;99.90
27540;DHT22;15906;52.046;4.724;2022-12-20T14:03:30;10.60;99.90
27540;DHT22;15906;52.046;4.724;2022-12-20T14:05:59;10.60;99.90
27540;DHT22;15906;52.046;4.724;2022-12-20T14:08:30;10.60;99.90
27540;DHT22;15906;52.046;4.724;2022-12-20T14:11:08;10.60;99.90
27540;DHT22;15906;52.046;4.724;2022-12-20T14:13:34;10.50;99.90
27540;DHT22;15906;52.046;4.724;2022-12-20T14:16:13;10.50;99.90
27540;DHT22;15906;52.046;4.724;2022-12-20T14:18:39;10.50;99.90
27540;DHT22;15906;52.046;4.724;2022-12-20T14:21:06;10.50;99.90
27540;DHT22;15906;52.046;4.724;2022-12-20T14:23:39;10.50;99.90
27540;DHT22;15906;52.046;4.724;2022-12-20T14:26:17;10.50;99.90
27540;DHT22;15906;52.046;4.724;2022-12-20T14:28:49;10.50;99.90
27540;DHT22;15906;52.046;4.724;2022-12-20T14:34:12;10.50;99.90
27540;DHT22;15906;52.046;4.724;2022-12-20T14:36:41;10.60;99.90
27540;DHT22;15906;52.046;4.724;2022-12-20T14:39:31;10.50;99.90
27540;DHT22;15906;52.046;4.724;2022-12-20T14:42:18;10.50;99.90
27540;DHT22;15906;52.046;4.724;2022-12-20T14:44:45;10.50;99.90
27540;DHT22;15906;52.046;4.724;2022-12-20T14:47:17;10.40;99.90
27540;DHT22;15906;52.046;4.724;2022-12-20T14:49:58;10.50;99.90
27540;DHT22;15906;52.046;4.724;2022-12-20T14:52:40;10.50;99.90
27540;DHT22;15906;52.046;4.724;2022-12-20T14:57:49;10.50;99.90
27540;DHT22;15906;52.046;4.724;2022-12-20T15:00:29;10.40;99.90
27540;DHT22;15906;52.046;4.724;2022-12-20T15:08:18;10.40;99.90
27540;DHT22;15906;52.046;4.724;2022-12-20T15:10:59;10.40;99.90
27540;DHT22;15906;52.046;4.724;2022-12-20T15:13:36;10.40;99.90
27540;DHT22;15906;52.046;4.724;2022-12-20T15:16:23;10.40;99.90
27540;DHT22;15906;52.046;4.724;2022-12-20T15:18:53;10.40;99.90
27540;DHT22;15906;52.046;4.724;2022-12-20T15:21:29;10.40;99.90
27540;DHT22;15906;52.046;4.724;2022-12-20T15:23:56;10.50;99.90
27540;DHT22;15906;52.046;4.724;2022-12-20T15:26:25;10.40;99.90
27540;DHT22;15906;52.046;4.724;2022-12-20T15:28:51;10.40;99.90
27540;DHT22;15906;52.046;4.724;2022-12-20T15:31:19;10.30;99.90
27540;DHT22;15906;52.046;4.724;2022-12-20T15:33:46;10.30;99.90
27540;DHT22;15906;52.046;4.724;2022-12-20T15:36:16;10.30;99.90
27540;DHT22;15906;52.046;4.724;2022-12-20T15:38:42;10.30;99.90
27540;DHT22;15906;52.046;4.724;2022-12-20T15:41:16;10.30;99.90
27540;DHT22;15906;52.046;4.724;2022-12-20T15:43:43;10.20;99.90
27540;DHT22;15906;52.046;4.724;2022-12-20T15:46:09;10.20;99.90
27540;DHT22;15906;52.046;4.724;2022-12-20T15:48:35;10.30;99.90
27540;DHT22;15906;52.046;4.724;2022-12-20T15:51:00;10.30;99.90
27540;DHT22;15906;52.046;4.724;2022-12-20T15:53:30;10.30;99.90
27540;DHT22;15906;52.046;4.724;2022-12-20T15:55:57;10.30;99.90
27540;DHT22;15906;52.046;4.724;2022-12-20T15:58:24;10.30;99.90
27540;DHT22;15906;52.046;4.724;2022-12-20T16:00:53;10.20;99.90
27540;DHT22;15906;52.046;4.724;2022-12-20T16:03:21;10.20;99.90
27540;DHT22;15906;52.046;4.724;2022-12-20T16:05:48;10.30;99.90
27540;DHT22;15906;52.046;4.724;2022-12-20T16:08:14;10.30;99.90
27540;DHT22;15906;52.046;4.724;2022-12-20T16:10:41;10.30;99.90
27540;DHT22;15906;52.046;4.724;2022-12-20T16:13:16;10.20;99.90
27540;DHT22;15906;52.046;4.724;2022-12-20T16:15:42;10.20;99.90
27540;DHT22;15906;52.046;4.724;2022-12-20T16:18:08;10.30;99.90
27540;DHT22;15906;52.046;4.724;2022-12-20T16:20:33;10.30;99.90
27540;DHT22;15906;52.046;4.724;2022-12-20T16:23:00;10.20;99.90
27540;DHT22;15906;52.046;4.724;2022-12-20T16:25:28;10.10;99.90
27540;DHT22;15906;52.046;4.724;2022-12-20T16:27:55;10.20;99.90
27540;DHT22;15906;52.046;4.724;2022-12-20T16:30:20;10.30;99.90
27540;DHT22;15906;52.046;4.724;2022-12-20T16:32:47;10.20;99.90
27540;DHT22;15906;52.046;4.724;2022-12-20T16:37:47;10.10;99.90
27540;DHT22;15906;52.046;4.724;2022-12-20T16:40:13;10.10;99.90
27540;DHT22;15906;52.046;4.724;2022-12-20T16:42:40;10.00;99.90
27540;DHT22;15906;52.046;4.724;2022-12-20T16:45:10;10.20;99.90
27540;DHT22;15906;52.046;4.724;2022-12-20T16:47:37;10.20;99.90
27540;DHT22;15906;52.046;4.724;2022-12-20T16:50:05;10.20;99.90
27540;DHT22;15906;52.046;4.724;2022-12-20T16:52:32;10.10;99.90
27540;DHT22;15906;52.046;4.724;2022-12-20T16:55:02;10.10;99.90
27540;DHT22;15906;52.046;4.724;2022-12-20T16:57:27;10.10;99.90
27540;DHT22;15906;52.046;4.724;2022-12-20T16:59:53;10.20;99.90
27540;DHT22;15906;52.046;4.724;2022-12-20T17:02:31;10.10;99.90
27540;DHT22;15906;52.046;4.724;2022-12-20T17:04:57;10.10;99.90
27540;DHT22;15906;52.046;4.724;2022-12-20T17:07:23;10.10;99.90
27540;DHT22;15906;52.046;4.724;2022-12-20T17:09:48;10.20;99.90
27540;DHT22;15906;52.046;4.724;2022-12-20T17:12:18;10.10;99.90
27540;DHT22;15906;52.046;4.724;2022-12-20T17:14:44;10.20;99.90
27540;DHT22;15906;52.046;4.724;2022-12-20T17:17:11;10.10;99.90
27540;DHT22;15906;52.046;4.724;2022-12-20T17:19:37;10.10;99.90
27540;DHT22;15906;52.046;4.724;2022-12-20T17:22:02;10.10;99.90
27540;DHT22;15906;52.046;4.724;2022-12-20T17:24:28;10.00;99.90
27540;DHT22;15906;52.046;4.724;2022-12-20T17:26:54;10.00;99.90
27540;DHT22;15906;52.046;4.724;2022-12-20T17:29:19;10.10;99.90
27540;DHT22;15906;52.046;4.724;2022-12-20T17:31:46;10.10;99.90
27540;DHT22;15906;52.046;4.724;2022-12-20T17:34:26;10.00;99.90
27540;DHT22;15906;52.046;4.724;2022-12-20T17:36:54;10.10;99.90
27540;DHT22;15906;52.046;4.724;2022-12-20T17:39:21;10.10;99.90
27540;DHT22;15906;52.046;4.724;2022-12-20T17:41:47;10.00;99.90
27540;DHT22;15906;52.046;4.724;2022-12-20T17:44:19;10.10;99.90